sensor_id;sensor_type;location;lat;lon;timestamp;pressure;altitude;pressure_sealevel;temperature;humidity
54172;BME280;40076;52.354;4.970;2023-09-19T00:00:36;100635.97;;;16.93;92.98
54172;BME280;40076;52.354;4.970;2023-09-19T00:03:02;100641.81;;;16.91;93.30
54172;BME280;40076;52.354;4.970;2023-09-19T00:05:29;100631.59;;;16.88;93.11
54172;BME280;40076;52.354;4.970;2023-09-19T00:07:56;100635.09;;;16.85;92.94
54172;BME280;40076;52.354;4.970;2023-09-19T00:10:24;100651.81;;;16.84;92.81
54172;BME280;40076;52.354;4.970;2023-09-19T00:12:51;100660.00;;;16.84;92.56
54172;BME280;40076;52.354;4.970;2023-09-19T00:15:18;100650.22;;;16.83;92.65
54172;BME280;40076;52.354;4.970;2023-09-19T00:17:46;100649.00;;;16.80;92.08
54172;BME280;40076;52.354;4.970;2023-09-19T00:20:13;100661.88;;;16.80;91.67
54172;BME280;40076;52.354;4.970;2023-09-19T00:22:40;100662.22;;;16.78;91.84
54172;BME280;40076;52.354;4.970;2023-09-19T00:25:09;100667.28;;;16.76;91.77
54172;BME280;40076;52.354;4.970;2023-09-19T00:27:37;100667.28;;;16.76;91.82
54172;BME280;40076;52.354;4.970;2023-09-19T00:30:10;100668.44;;;16.75;91.82
54172;BME280;40076;52.354;4.970;2023-09-19T00:32:40;100668.78;;;16.74;91.38
54172;BME280;40076;52.354;4.970;2023-09-19T00:35:06;100669.16;;;16.72;90.78
54172;BME280;40076;52.354;4.970;2023-09-19T00:37:34;100680.81;;;16.69;90.07
54172;BME280;40076;52.354;4.970;2023-09-19T00:40:00;100675.34;;;16.69;89.59
54172;BME280;40076;52.354;4.970;2023-09-19T00:42:25;100676.13;;;16.70;89.24
54172;BME280;40076;52.354;4.970;2023-09-19T00:44:51;100681.94;;;16.68;89.09
54172;BME280;40076;52.354;4.970;2023-09-19T00:47:20;100678.78;;;16.66;88.54
54172;BME280;40076;52.354;4.970;2023-09-19T00:49:45;100679.94;;;16.65;88.08
54172;BME280;40076;52.354;4.970;2023-09-19T00:52:15;100678.34;;;16.64;87.90
54172;BME280;40076;52.354;4.970;2023-09-19T00:54:46;100681.09;;;16.64;87.63
54172;BME280;40076;52.354;4.970;2023-09-19T00:57:12;100685.75;;;16.64;87.38
54172;BME280;40076;52.354;4.970;2023-09-19T00:59:37;100684.97;;;16.63;87.18
54172;BME280;40076;52.354;4.970;2023-09-19T01:02:03;100684.97;;;16.63;87.05
54172;BME280;40076;52.354;4.970;2023-09-19T01:04:29;100684.97;;;16.63;86.90
54172;BME280;40076;52.354;4.970;2023-09-19T01:06:56;100686.94;;;16.63;87.16
54172;BME280;40076;52.354;4.970;2023-09-19T01:09:23;100681.81;;;16.61;87.15
54172;BME280;40076;52.354;4.970;2023-09-19T01:11:51;100683.75;;;16.61;86.96
54172;BME280;40076;52.354;4.970;2023-09-19T01:14:54;100683.28;;;16.58;86.93
54172;BME280;40076;52.354;4.970;2023-09-19T01:17:57;100684.09;;;16.59;87.29
54172;BME280;40076;52.354;4.970;2023-09-19T01:20:33;100682.81;;;16.53;87.39
54172;BME280;40076;52.354;4.970;2023-09-19T01:23:52;100683.97;;;16.52;87.58
54172;BME280;40076;52.354;4.970;2023-09-19T01:31:58;100681.94;;;16.49;87.17
54172;BME280;40076;52.354;4.970;2023-09-19T01:34:26;100684.28;;;16.47;87.17
54172;BME280;40076;52.354;4.970;2023-09-19T01:36:52;100680.75;;;16.46;86.72
54172;BME280;40076;52.354;4.970;2023-09-19T01:39:17;100692.44;;;16.47;86.79
54172;BME280;40076;52.354;4.970;2023-09-19T01:45:08;100697.13;;;16.46;87.33
54172;BME280;40076;52.354;4.970;2023-09-19T01:47:46;100687.34;;;16.45;87.52
54172;BME280;40076;52.354;4.970;2023-09-19T01:50:17;100681.09;;;16.45;87.63
54172;BME280;40076;52.354;4.970;2023-09-19T01:52:51;100679.53;;;16.44;87.93
54172;BME280;40076;52.354;4.970;2023-09-19T01:55:20;100678.38;;;16.45;88.09
54172;BME280;40076;52.354;4.970;2023-09-19T01:58:08;100675.66;;;16.45;88.61
54172;BME280;40076;52.354;4.970;2023-09-19T02:00:40;100670.63;;;16.47;88.79
54172;BME280;40076;52.354;4.970;2023-09-19T02:03:08;100678.44;;;16.48;89.05
54172;BME280;40076;52.354;4.970;2023-09-19T02:05:34;100681.94;;;16.49;89.93
54172;BME280;40076;52.354;4.970;2023-09-19T02:08:00;100687.84;;;16.51;90.88
54172;BME280;40076;52.354;4.970;2023-09-19T02:10:26;100706.22;;;16.54;91.87
54172;BME280;40076;52.354;4.970;2023-09-19T02:12:54;100699.63;;;16.55;92.67
54172;BME280;40076;52.354;4.970;2023-09-19T02:15:19;100700.03;;;16.57;93.58
54172;BME280;40076;52.354;4.970;2023-09-19T02:17:45;100701.59;;;16.58;94.19
54172;BME280;40076;52.354;4.970;2023-09-19T02:20:12;100697.66;;;16.55;94.76
54172;BME280;40076;52.354;4.970;2023-09-19T02:22:43;100698.75;;;16.51;95.41
54172;BME280;40076;52.354;4.970;2023-09-19T02:25:09;100696.38;;;16.49;95.62
54172;BME280;40076;52.354;4.970;2023-09-19T02:27:35;100700.19;;;16.45;95.92
54172;BME280;40076;52.354;4.970;2023-09-19T02:30:01;100697.03;;;16.43;96.37
54172;BME280;40076;52.354;4.970;2023-09-19T02:32:28;100696.97;;;16.39;96.63
54172;BME280;40076;52.354;4.970;2023-09-19T02:34:55;100697.34;;;16.38;97.07
54172;BME280;40076;52.354;4.970;2023-09-19T02:37:21;100695.75;;;16.37;97.50
54172;BME280;40076;52.354;4.970;2023-09-19T02:39:47;100716.78;;;16.36;97.62
54172;BME280;40076;52.354;4.970;2023-09-19T02:42:12;100712.47;;;16.35;97.81
54172;BME280;40076;52.354;4.970;2023-09-19T02:44:38;100705.44;;;16.34;97.80
54172;BME280;40076;52.354;4.970;2023-09-19T02:47:03;100704.66;;;16.34;97.86
54172;BME280;40076;52.354;4.970;2023-09-19T02:49:32;100708.91;;;16.31;98.56
54172;BME280;40076;52.354;4.970;2023-09-19T02:52:05;100697.22;;;16.31;98.37
54172;BME280;40076;52.354;4.970;2023-09-19T02:54:35;100693.34;;;16.32;98.42
54172;BME280;40076;52.354;4.970;2023-09-19T02:57:02;100695.63;;;16.30;98.81
54172;BME280;40076;52.354;4.970;2023-09-19T02:59:28;100691.41;;;16.32;98.43
54172;BME280;40076;52.354;4.970;2023-09-19T03:01:55;100689.81;;;16.31;98.57
54172;BME280;40076;52.354;4.970;2023-09-19T03:04:20;100676.59;;;16.33;98.33
54172;BME280;40076;52.354;4.970;2023-09-19T03:06:49;100682.47;;;16.35;98.56
54172;BME280;40076;52.354;4.970;2023-09-19T03:09:16;100684.84;;;16.37;98.41
54172;BME280;40076;52.354;4.970;2023-09-19T03:11:42;100691.09;;;16.37;98.50
54172;BME280;40076;52.354;4.970;2023-09-19T03:14:08;100685.63;;;16.37;98.81
54172;BME280;40076;52.354;4.970;2023-09-19T03:16:35;100685.19;;;16.35;99.27
54172;BME280;40076;52.354;4.970;2023-09-19T03:19:02;100683.63;;;16.34;99.28
54172;BME280;40076;52.354;4.970;2023-09-19T03:21:31;100686.69;;;16.33;99.47
54172;BME280;40076;52.354;4.970;2023-09-19T03:23:56;100684.72;;;16.30;99.58
54172;BME280;40076;52.354;4.970;2023-09-19T03:26:22;100689.38;;;16.29;99.83
54172;BME280;40076;52.354;4.970;2023-09-19T03:28:47;100683.50;;;16.27;99.76
54172;BME280;40076;52.354;4.970;2023-09-19T03:31:13;100678.38;;;16.26;99.64
54172;BME280;40076;52.354;4.970;2023-09-19T03:33:38;100676.84;;;16.25;99.75
54172;BME280;40076;52.354;4.970;2023-09-19T03:36:04;100685.03;;;16.25;99.74
54172;BME280;40076;52.354;4.970;2023-09-19T03:38:30;100687.31;;;16.23;99.98
54172;BME280;40076;52.354;4.970;2023-09-19T03:40:56;100691.53;;;16.20;99.89
54172;BME280;40076;52.354;4.970;2023-09-19T03:43:22;100697.34;;;16.18;99.81
54172;BME280;40076;52.354;4.970;2023-09-19T03:45:48;100702.75;;;16.15;99.68
54172;BME280;40076;52.354;4.970;2023-09-19T03:48:14;100701.16;;;16.14;99.56
54172;BME280;40076;52.354;4.970;2023-09-19T03:50:40;100697.19;;;16.11;99.60
54172;BME280;40076;52.354;4.970;2023-09-19T03:53:05;100706.53;;;16.10;99.34
54172;BME280;40076;52.354;4.970;2023-09-19T03:55:32;100699.50;;;16.09;99.26
54172;BME280;40076;52.354;4.970;2023-09-19T03:58:01;100711.47;;;16.05;99.46
54172;BME280;40076;52.354;4.970;2023-09-19T04:00:26;100715.78;;;16.06;99.46
54172;BME280;40076;52.354;4.970;2023-09-19T04:02:54;100708.75;;;16.05;99.32
54172;BME280;40076;52.354;4.970;2023-09-19T04:05:24;100717.72;;;16.05;99.40
54172;BME280;40076;52.354;4.970;2023-09-19T04:07:50;100711.03;;;16.03;99.49
54172;BME280;40076;52.354;4.970;2023-09-19T04:10:16;100723.88;;;16.02;99.32
54172;BME280;40076;52.354;4.970;2023-09-19T04:12:54;100724.25;;;16.01;99.36
54172;BME280;40076;52.354;4.970;2023-09-19T04:15:20;100727.78;;;16.01;99.27
54172;BME280;40076;52.354;4.970;2023-09-19T04:17:49;100719.50;;;15.98;99.42
54172;BME280;40076;52.354;4.970;2023-09-19T04:20:14;100726.53;;;15.99;99.16
54172;BME280;40076;52.354;4.970;2023-09-19T04:22:41;100728.47;;;15.98;99.47
54172;BME280;40076;52.354;4.970;2023-09-19T04:25:09;100735.94;;;16.01;99.55
54172;BME280;40076;52.354;4.970;2023-09-19T04:27:35;100742.19;;;16.02;99.44
54172;BME280;40076;52.354;4.970;2023-09-19T04:30:01;100742.19;;;16.02;99.42
54172;BME280;40076;52.354;4.970;2023-09-19T04:32:28;100729.31;;;16.02;98.99
54172;BME280;40076;52.354;4.970;2023-09-19T04:34:54;100744.91;;;16.02;98.57
54172;BME280;40076;52.354;4.970;2023-09-19T04:37:25;100747.25;;;16.03;99.13
54172;BME280;40076;52.354;4.970;2023-09-19T04:39:50;100754.28;;;16.04;98.92
54172;BME280;40076;52.354;4.970;2023-09-19T04:42:16;100744.13;;;16.01;99.35
54172;BME280;40076;52.354;4.970;2023-09-19T04:44:43;100737.09;;;16.00;99.17
54172;BME280;40076;52.354;4.970;2023-09-19T04:47:08;100737.09;;;16.00;99.35
54172;BME280;40076;52.354;4.970;2023-09-19T04:49:34;100742.53;;;16.00;100.00
54172;BME280;40076;52.354;4.970;2023-09-19T04:52:00;100735.50;;;15.99;100.00
54172;BME280;40076;52.354;4.970;2023-09-19T04:54:25;100742.88;;;15.99;100.00
54172;BME280;40076;52.354;4.970;2023-09-19T04:56:52;100758.81;;;15.97;100.00
54172;BME280;40076;52.354;4.970;2023-09-19T04:59:17;100758.81;;;15.97;100.00
54172;BME280;40076;52.354;4.970;2023-09-19T05:01:43;100761.88;;;15.95;100.00
54172;BME280;40076;52.354;4.970;2023-09-19T05:04:09;100768.50;;;15.94;100.00
54172;BME280;40076;52.354;4.970;2023-09-19T05:06:34;100753.66;;;15.92;100.00
54172;BME280;40076;52.354;4.970;2023-09-19T05:09:01;100754.00;;;15.90;100.00
54172;BME280;40076;52.354;4.970;2023-09-19T05:11:26;100754.00;;;15.90;100.00
54172;BME280;40076;52.354;4.970;2023-09-19T05:13:52;100753.19;;;15.90;100.00
54172;BME280;40076;52.354;4.970;2023-09-19T05:16:21;100748.91;;;15.89;100.00
54172;BME280;40076;52.354;4.970;2023-09-19T05:18:47;100745.38;;;15.88;100.00
54172;BME280;40076;52.354;4.970;2023-09-19T05:21:12;100736.84;;;15.90;100.00
54172;BME280;40076;52.354;4.970;2023-09-19T05:23:38;100752.06;;;15.91;100.00
54172;BME280;40076;52.354;4.970;2023-09-19T05:26:03;100750.13;;;15.91;100.00
54172;BME280;40076;52.354;4.970;2023-09-19T05:28:30;100746.59;;;15.91;100.00
54172;BME280;40076;52.354;4.970;2023-09-19T05:31:00;100747.31;;;15.88;100.00
54172;BME280;40076;52.354;4.970;2023-09-19T05:33:26;100745.75;;;15.87;100.00
54172;BME280;40076;52.354;4.970;2023-09-19T05:35:52;100753.13;;;15.86;100.00
54172;BME280;40076;52.354;4.970;2023-09-19T05:38:19;100763.25;;;15.86;100.00
54172;BME280;40076;52.354;4.970;2023-09-19T05:40:46;100749.97;;;15.84;100.00
54172;BME280;40076;52.354;4.970;2023-09-19T05:43:11;100754.63;;;15.83;100.00
54172;BME280;40076;52.354;4.970;2023-09-19T05:45:37;100753.41;;;15.81;100.00
54172;BME280;40076;52.354;4.970;2023-09-19T05:48:13;100752.19;;;15.78;100.00
54172;BME280;40076;52.354;4.970;2023-09-19T05:50:40;100763.09;;;15.78;100.00
54172;BME280;40076;52.354;4.970;2023-09-19T05:53:05;100759.13;;;15.76;100.00
54172;BME280;40076;52.354;4.970;2023-09-19T05:55:34;100764.13;;;15.74;100.00
54172;BME280;40076;52.354;4.970;2023-09-19T05:58:03;100762.94;;;15.71;100.00
54172;BME280;40076;52.354;4.970;2023-09-19T06:00:29;100766.34;;;15.68;100.00
54172;BME280;40076;52.354;4.970;2023-09-19T06:02:58;100767.50;;;15.67;100.00
54172;BME280;40076;52.354;4.970;2023-09-19T06:05:25;100770.56;;;15.66;100.00
54172;BME280;40076;52.354;4.970;2023-09-19T06:07:56;100775.59;;;15.64;100.00
54172;BME280;40076;52.354;4.970;2023-09-19T06:10:25;100775.84;;;15.59;100.00
54172;BME280;40076;52.354;4.970;2023-09-19T06:12:51;100770.41;;;15.59;100.00
54172;BME280;40076;52.354;4.970;2023-09-19T06:15:17;100768.47;;;15.59;100.00
54172;BME280;40076;52.354;4.970;2023-09-19T06:18:02;100756.78;;;15.59;100.00
54172;BME280;40076;52.354;4.970;2023-09-19T06:20:30;100754.84;;;15.59;100.00
54172;BME280;40076;52.354;4.970;2023-09-19T06:22:56;100757.56;;;15.59;100.00
54172;BME280;40076;52.354;4.970;2023-09-19T06:25:22;100766.53;;;15.60;100.00
54172;BME280;40076;52.354;4.970;2023-09-19T06:27:51;100765.41;;;15.61;100.00
54172;BME280;40076;52.354;4.970;2023-09-19T06:30:19;100766.97;;;15.62;100.00
54172;BME280;40076;52.354;4.970;2023-09-19T06:32:45;100768.56;;;15.63;100.00
54172;BME280;40076;52.354;4.970;2023-09-19T06:35:13;100770.16;;;15.64;100.00
54172;BME280;40076;52.354;4.970;2023-09-19T06:37:40;100768.97;;;15.65;100.00
54172;BME280;40076;52.354;4.970;2023-09-19T06:40:08;100771.69;;;15.65;100.00
54172;BME280;40076;52.354;4.970;2023-09-19T06:42:39;100779.09;;;15.64;100.00
54172;BME280;40076;52.354;4.970;2023-09-19T06:45:05;100774.44;;;15.65;100.00
54172;BME280;40076;52.354;4.970;2023-09-19T06:47:31;100767.84;;;15.66;100.00
54172;BME280;40076;52.354;4.970;2023-09-19T06:49:56;100772.16;;;15.67;100.00
54172;BME280;40076;52.354;4.970;2023-09-19T06:52:21;100779.19;;;15.68;100.00
54172;BME280;40076;52.354;4.970;2023-09-19T06:54:48;100772.94;;;15.67;100.00
54172;BME280;40076;52.354;4.970;2023-09-19T06:57:16;100779.97;;;15.68;100.00
54172;BME280;40076;52.354;4.970;2023-09-19T06:59:41;100790.53;;;15.70;100.00
54172;BME280;40076;52.354;4.970;2023-09-19T07:02:09;100783.94;;;15.71;100.00
54172;BME280;40076;52.354;4.970;2023-09-19T07:04:39;100782.41;;;15.73;100.00
54172;BME280;40076;52.354;4.970;2023-09-19T07:07:04;100790.25;;;15.75;100.00
54172;BME280;40076;52.354;4.970;2023-09-19T07:09:34;100800.78;;;15.76;100.00
54172;BME280;40076;52.354;4.970;2023-09-19T07:12:02;100806.69;;;15.78;100.00
54172;BME280;40076;52.354;4.970;2023-09-19T07:14:27;100804.75;;;15.79;100.00
54172;BME280;40076;52.354;4.970;2023-09-19T07:16:55;100808.69;;;15.81;100.00
54172;BME280;40076;52.354;4.970;2023-09-19T07:19:21;100806.75;;;15.82;100.00
54172;BME280;40076;52.354;4.970;2023-09-19T07:21:47;100805.25;;;15.85;100.00
54172;BME280;40076;52.354;4.970;2023-09-19T07:24:18;100806.84;;;15.86;100.00
54172;BME280;40076;52.354;4.970;2023-09-19T07:26:46;100801.81;;;15.88;100.00
54172;BME280;40076;52.354;4.970;2023-09-19T07:29:15;100798.72;;;15.89;100.00
54172;BME280;40076;52.354;4.970;2023-09-19T07:31:42;100813.59;;;15.92;100.00
54172;BME280;40076;52.354;4.970;2023-09-19T07:34:09;100809.38;;;15.94;100.00
54172;BME280;40076;52.354;4.970;2023-09-19T07:36:35;100810.94;;;15.95;100.00
54172;BME280;40076;52.354;4.970;2023-09-19T07:39:03;100811.38;;;15.97;100.00
54172;BME280;40076;52.354;4.970;2023-09-19T07:41:32;100813.41;;;16.00;100.00
54172;BME280;40076;52.354;4.970;2023-09-19T07:44:01;100811.09;;;16.02;100.00
54172;BME280;40076;52.354;4.970;2023-09-19T07:46:27;100813.91;;;16.06;100.00
54172;BME280;40076;52.354;4.970;2023-09-19T07:48:53;100815.56;;;16.10;100.00
54172;BME280;40076;52.354;4.970;2023-09-19T07:51:21;100811.34;;;16.13;100.00
54172;BME280;40076;52.354;4.970;2023-09-19T07:53:52;100806.75;;;16.17;100.00
54172;BME280;40076;52.354;4.970;2023-09-19T07:56:18;100815.34;;;16.19;100.00
54172;BME280;40076;52.354;4.970;2023-09-19T07:58:50;100811.56;;;16.24;100.00
54172;BME280;40076;52.354;4.970;2023-09-19T08:01:29;100812.44;;;16.28;100.00
54172;BME280;40076;52.354;4.970;2023-09-19T08:03:54;100809.00;;;16.31;100.00
54172;BME280;40076;52.354;4.970;2023-09-19T08:06:22;100812.94;;;16.33;100.00
54172;BME280;40076;52.354;4.970;2023-09-19T08:08:51;100808.25;;;16.34;100.00
54172;BME280;40076;52.354;4.970;2023-09-19T08:11:20;100802.09;;;16.37;100.00
54172;BME280;40076;52.354;4.970;2023-09-19T08:13:49;100808.41;;;16.41;100.00
54172;BME280;40076;52.354;4.970;2023-09-19T08:16:15;100803.41;;;16.43;100.00
54172;BME280;40076;52.354;4.970;2023-09-19T08:18:46;100798.38;;;16.45;100.00
54172;BME280;40076;52.354;4.970;2023-09-19T08:21:15;100785.19;;;16.47;100.00
54172;BME280;40076;52.354;4.970;2023-09-19T08:23:43;100796.94;;;16.51;100.00
54172;BME280;40076;52.354;4.970;2023-09-19T08:26:11;100798.97;;;16.54;100.00
54172;BME280;40076;52.354;4.970;2023-09-19T08:28:37;100786.53;;;16.56;100.00
54172;BME280;40076;52.354;4.970;2023-09-19T08:31:06;100790.47;;;16.59;100.00
54172;BME280;40076;52.354;4.970;2023-09-19T08:33:36;100794.00;;;16.59;100.00
54172;BME280;40076;52.354;4.970;2023-09-19T08:36:05;100788.22;;;16.61;100.00
54172;BME280;40076;52.354;4.970;2023-09-19T08:38:56;100789.06;;;16.65;100.00
54172;BME280;40076;52.354;4.970;2023-09-19T08:41:21;100801.63;;;16.70;100.00
54172;BME280;40076;52.354;4.970;2023-09-19T08:43:59;100803.19;;;16.71;100.00
54172;BME280;40076;52.354;4.970;2023-09-19T08:46:45;100804.06;;;16.75;100.00
54172;BME280;40076;52.354;4.970;2023-09-19T08:56:09;100797.28;;;16.88;100.00
54172;BME280;40076;52.354;4.970;2023-09-19T08:58:59;100791.91;;;16.91;100.00
54172;BME280;40076;52.354;4.970;2023-09-19T09:01:32;100792.75;;;16.95;100.00
54172;BME280;40076;52.354;4.970;2023-09-19T09:04:22;100799.75;;;16.93;100.00
54172;BME280;40076;52.354;4.970;2023-09-19T09:07:00;100785.72;;;16.94;100.00
54172;BME280;40076;52.354;4.970;2023-09-19T09:09:29;100785.72;;;16.94;100.00
54172;BME280;40076;52.354;4.970;2023-09-19T09:11:55;100793.19;;;16.97;100.00
54172;BME280;40076;52.354;4.970;2023-09-19T09:14:25;100792.81;;;16.99;100.00
54172;BME280;40076;52.354;4.970;2023-09-19T09:16:51;100788.50;;;16.98;100.00
54172;BME280;40076;52.354;4.970;2023-09-19T09:19:16;100785.78;;;16.98;100.00
54172;BME280;40076;52.354;4.970;2023-09-19T09:21:49;100788.22;;;17.03;100.00
54172;BME280;40076;52.354;4.970;2023-09-19T09:24:29;100785.84;;;17.02;100.00
54172;BME280;40076;52.354;4.970;2023-09-19T09:26:57;100791.72;;;17.04;100.00
54172;BME280;40076;52.354;4.970;2023-09-19T09:29:41;100795.25;;;17.04;100.00
54172;BME280;40076;52.354;4.970;2023-09-19T09:32:26;100793.78;;;17.10;100.00
54172;BME280;40076;52.354;4.970;2023-09-19T09:34:57;100793.44;;;17.12;100.00
54172;BME280;40076;52.354;4.970;2023-09-19T09:37:25;100794.66;;;17.14;100.00
54172;BME280;40076;52.354;4.970;2023-09-19T09:39:53;100791.19;;;17.17;100.00
54172;BME280;40076;52.354;4.970;2023-09-19T09:42:47;100780.69;;;17.19;100.00
54172;BME280;40076;52.354;4.970;2023-09-19T09:45:21;100781.13;;;17.21;100.00
54172;BME280;40076;52.354;4.970;2023-09-19T09:48:03;100779.97;;;17.22;100.00
54172;BME280;40076;52.354;4.970;2023-09-19T09:50:46;100775.31;;;17.23;100.00
54172;BME280;40076;52.354;4.970;2023-09-19T09:56:08;100768.38;;;17.29;100.00
54172;BME280;40076;52.354;4.970;2023-09-19T09:58:36;100778.97;;;17.34;100.00
54172;BME280;40076;52.354;4.970;2023-09-19T10:01:04;100774.38;;;17.38;100.00
54172;BME280;40076;52.354;4.970;2023-09-19T10:03:43;100772.84;;;17.41;100.00
54172;BME280;40076;52.354;4.970;2023-09-19T10:06:14;100766.66;;;17.44;100.00
54172;BME280;40076;52.354;4.970;2023-09-19T10:09:00;100762.81;;;17.48;100.00
54172;BME280;40076;52.354;4.970;2023-09-19T10:11:32;100769.56;;;17.54;100.00
54172;BME280;40076;52.354;4.970;2023-09-19T10:14:00;100733.31;;;17.57;100.00
54172;BME280;40076;52.354;4.970;2023-09-19T10:16:32;100748.63;;;17.62;100.00
54172;BME280;40076;52.354;4.970;2023-09-19T10:19:01;100734.22;;;17.65;100.00
54172;BME280;40076;52.354;4.970;2023-09-19T10:21:28;100731.56;;;17.68;100.00
54172;BME280;40076;52.354;4.970;2023-09-19T10:23:58;100729.66;;;17.72;100.00
54172;BME280;40076;52.354;4.970;2023-09-19T10:26:26;100729.31;;;17.78;100.00
54172;BME280;40076;52.354;4.970;2023-09-19T10:28:56;100722.75;;;17.82;100.00
54172;BME280;40076;52.354;4.970;2023-09-19T10:31:23;100720.06;;;17.86;100.00
54172;BME280;40076;52.354;4.970;2023-09-19T10:33:51;100727.53;;;17.89;100.00
54172;BME280;40076;52.354;4.970;2023-09-19T10:36:19;100715.06;;;17.91;100.00
54172;BME280;40076;52.354;4.970;2023-09-19T10:38:47;100707.66;;;17.92;100.00
54172;BME280;40076;52.354;4.970;2023-09-19T10:41:16;100728.75;;;17.91;100.00
54172;BME280;40076;52.354;4.970;2023-09-19T10:43:43;100702.56;;;17.90;100.00
54172;BME280;40076;52.354;4.970;2023-09-19T10:46:11;100715.06;;;17.91;100.00
54172;BME280;40076;52.354;4.970;2023-09-19T10:48:40;100712.72;;;17.93;100.00
54172;BME280;40076;52.354;4.970;2023-09-19T10:51:26;100701.06;;;17.96;100.00
54172;BME280;40076;52.354;4.970;2023-09-19T10:54:01;100710.88;;;18.01;100.00
54172;BME280;40076;52.354;4.970;2023-09-19T10:56:43;100710.16;;;18.04;100.00
54172;BME280;40076;52.354;4.970;2023-09-19T10:59:14;100709.41;;;18.07;100.00
54172;BME280;40076;52.354;4.970;2023-09-19T11:01:53;100693.41;;;18.09;100.00
54172;BME280;40076;52.354;4.970;2023-09-19T11:04:34;100684.09;;;18.13;100.00
54172;BME280;40076;52.354;4.970;2023-09-19T11:07:01;100693.47;;;18.16;100.00
54172;BME280;40076;52.354;4.970;2023-09-19T11:14:54;100703.25;;;18.17;100.00
54172;BME280;40076;52.354;4.970;2023-09-19T11:30:48;100665.22;;;18.38;100.00
54172;BME280;40076;52.354;4.970;2023-09-19T11:36:02;100687.56;;;18.44;100.00
54172;BME280;40076;52.354;4.970;2023-09-19T11:46:54;100689.53;;;18.47;100.00
54172;BME280;40076;52.354;4.970;2023-09-19T11:49:31;100685.97;;;18.43;99.80
54172;BME280;40076;52.354;4.970;2023-09-19T11:51:59;100688.38;;;18.48;100.00
54172;BME280;40076;52.354;4.970;2023-09-19T11:54:31;100694.59;;;18.45;99.98
54172;BME280;40076;52.354;4.970;2023-09-19T11:57:00;100696.56;;;18.44;100.00
54172;BME280;40076;52.354;4.970;2023-09-19T11:59:29;100692.25;;;18.43;99.92
54172;BME280;40076;52.354;4.970;2023-09-19T12:02:07;100673.81;;;18.37;100.00
54172;BME280;40076;52.354;4.970;2023-09-19T12:04:47;100686.31;;;18.38;100.00
54172;BME280;40076;52.354;4.970;2023-09-19T12:07:15;100687.13;;;18.38;100.00
54172;BME280;40076;52.354;4.970;2023-09-19T12:12:27;100684.75;;;18.37;100.00
54172;BME280;40076;52.354;4.970;2023-09-19T12:15:07;100692.16;;;18.36;100.00
54172;BME280;40076;52.354;4.970;2023-09-19T12:17:37;100675.75;;;18.36;100.00
54172;BME280;40076;52.354;4.970;2023-09-19T12:20:18;100694.91;;;18.36;100.00
54172;BME280;40076;52.354;4.970;2023-09-19T12:22:53;100702.69;;;18.34;100.00
54172;BME280;40076;52.354;4.970;2023-09-19T12:25:27;100704.22;;;18.32;100.00
54172;BME280;40076;52.354;4.970;2023-09-19T12:28:27;100700.25;;;18.26;100.00
54172;BME280;40076;52.354;4.970;2023-09-19T12:31:23;100708.03;;;18.24;100.00
54172;BME280;40076;52.354;4.970;2023-09-19T12:34:26;100712.25;;;18.18;100.00
54172;BME280;40076;52.354;4.970;2023-09-19T12:43:44;100683.69;;;18.11;100.00
54172;BME280;40076;52.354;4.970;2023-09-19T12:46:47;100671.59;;;18.12;100.00
54172;BME280;40076;52.354;4.970;2023-09-19T12:49:34;100670.06;;;18.15;100.00
54172;BME280;40076;52.354;4.970;2023-09-19T12:52:52;100674.75;;;18.18;100.00
54172;BME280;40076;52.354;4.970;2023-09-19T12:58:16;100662.78;;;18.30;100.00
54172;BME280;40076;52.354;4.970;2023-09-19T13:00:51;100669.91;;;18.38;100.00
54172;BME280;40076;52.354;4.970;2023-09-19T13:16:32;100656.09;;;18.61;100.00
54172;BME280;40076;52.354;4.970;2023-09-19T13:46:54;100669.06;;;18.67;100.00
54172;BME280;40076;52.354;4.970;2023-09-19T13:49:56;100680.38;;;18.66;100.00
54172;BME280;40076;52.354;4.970;2023-09-19T13:53:10;100672.13;;;18.62;100.00
54172;BME280;40076;52.354;4.970;2023-09-19T13:59:16;100661.94;;;18.59;100.00
54172;BME280;40076;52.354;4.970;2023-09-19T14:08:10;100697.94;;;18.61;100.00
54172;BME280;40076;52.354;4.970;2023-09-19T14:10:43;100691.63;;;18.57;100.00
54172;BME280;40076;52.354;4.970;2023-09-19T14:13:10;100682.19;;;18.55;100.00
54172;BME280;40076;52.354;4.970;2023-09-19T14:15:43;100677.44;;;18.48;100.00
54172;BME280;40076;52.354;4.970;2023-09-19T14:18:24;100669.97;;;18.45;100.00
54172;BME280;40076;52.354;4.970;2023-09-19T14:21:06;100663.25;;;18.35;100.00
54172;BME280;40076;52.354;4.970;2023-09-19T14:23:39;100665.13;;;18.31;100.00
54172;BME280;40076;52.354;4.970;2023-09-19T14:26:14;100681.88;;;18.26;100.00
54172;BME280;40076;52.354;4.970;2023-09-19T14:29:12;100689.28;;;18.22;100.00
54172;BME280;40076;52.354;4.970;2023-09-19T14:31:46;100685.34;;;18.20;100.00
54172;BME280;40076;52.354;4.970;2023-09-19T14:34:12;100704.06;;;18.18;100.00
54172;BME280;40076;52.354;4.970;2023-09-19T14:36:51;100729.03;;;18.16;100.00
54172;BME280;40076;52.354;4.970;2023-09-19T14:39:42;100689.88;;;18.08;100.00
54172;BME280;40076;52.354;4.970;2023-09-19T14:42:40;100687.53;;;18.07;100.00
54172;BME280;40076;52.354;4.970;2023-09-19T14:45:11;100683.16;;;18.02;100.00
54172;BME280;40076;52.354;4.970;2023-09-19T14:47:46;100685.13;;;18.02;100.00
54172;BME280;40076;52.354;4.970;2023-09-19T14:50:12;100689.41;;;17.99;100.00
54172;BME280;40076;52.354;4.970;2023-09-19T14:52:38;100688.97;;;17.97;100.00